Schedule Details


Flight Number: CTN470
Departure: Franjo Tudman (LDZA) at 09:00
Arrival: Charles-de-gaulle (LFPG) at 11:05
Route: PODET DCT TIBRO/N0453F380 UY9 NAXAV UZ613 RONAG UL613 HOC UL856 MOROK/N0454F360 UL856 PENDU/N0459F330 UL856 GIVRI/N0458F320 UM982 TINIL

Weather Information
LDZA 171100Z VRB01KT CAVOK 19/13 Q1020 NOSIG
LFPG 171100Z 35003KT 290V060 CAVOK 19/13 Q1019 NOSIG
Schedule Frequency

Route Map